sensor_id;sensor_type;location;lat;lon;timestamp;P1;durP1;ratioP1;P2;durP2;ratioP2
54795;SDS011;40693;43.884;20.340;2023-11-19T00:00:47;9.90;;;5.47;;
54795;SDS011;40693;43.884;20.340;2023-11-19T00:03:12;8.35;;;5.18;;
54795;SDS011;40693;43.884;20.340;2023-11-19T00:05:38;7.50;;;4.63;;
54795;SDS011;40693;43.884;20.340;2023-11-19T00:08:04;7.93;;;5.13;;
54795;SDS011;40693;43.884;20.340;2023-11-19T00:10:31;7.50;;;4.93;;
54795;SDS011;40693;43.884;20.340;2023-11-19T00:12:57;11.60;;;7.00;;
54795;SDS011;40693;43.884;20.340;2023-11-19T00:15:22;9.93;;;5.97;;
54795;SDS011;40693;43.884;20.340;2023-11-19T00:17:49;13.02;;;7.43;;
54795;SDS011;40693;43.884;20.340;2023-11-19T00:20:15;7.40;;;4.80;;
54795;SDS011;40693;43.884;20.340;2023-11-19T00:22:42;10.93;;;6.20;;
54795;SDS011;40693;43.884;20.340;2023-11-19T00:25:08;14.32;;;6.88;;
54795;SDS011;40693;43.884;20.340;2023-11-19T00:27:35;26.88;;;8.75;;
54795;SDS011;40693;43.884;20.340;2023-11-19T00:30:02;19.98;;;9.50;;
54795;SDS011;40693;43.884;20.340;2023-11-19T00:32:30;13.93;;;7.40;;
54795;SDS011;40693;43.884;20.340;2023-11-19T00:34:57;10.77;;;6.05;;
54795;SDS011;40693;43.884;20.340;2023-11-19T00:37:23;8.53;;;5.17;;
54795;SDS011;40693;43.884;20.340;2023-11-19T00:39:48;39.17;;;16.67;;
54795;SDS011;40693;43.884;20.340;2023-11-19T00:42:14;20.42;;;8.32;;
54795;SDS011;40693;43.884;20.340;2023-11-19T00:44:40;12.48;;;5.85;;
54795;SDS011;40693;43.884;20.340;2023-11-19T00:47:06;8.23;;;4.70;;
54795;SDS011;40693;43.884;20.340;2023-11-19T00:49:32;11.43;;;6.27;;
54795;SDS011;40693;43.884;20.340;2023-11-19T00:51:58;8.02;;;5.30;;
54795;SDS011;40693;43.884;20.340;2023-11-19T00:54:24;12.18;;;6.35;;
54795;SDS011;40693;43.884;20.340;2023-11-19T00:56:53;83.18;;;26.35;;
54795;SDS011;40693;43.884;20.340;2023-11-19T00:59:20;43.67;;;16.55;;
54795;SDS011;40693;43.884;20.340;2023-11-19T01:01:46;51.30;;;17.55;;
54795;SDS011;40693;43.884;20.340;2023-11-19T01:04:16;16.35;;;7.97;;
54795;SDS011;40693;43.884;20.340;2023-11-19T01:06:42;7.90;;;5.30;;
54795;SDS011;40693;43.884;20.340;2023-11-19T01:09:08;6.47;;;3.75;;
54795;SDS011;40693;43.884;20.340;2023-11-19T01:11:34;16.40;;;6.28;;
54795;SDS011;40693;43.884;20.340;2023-11-19T01:14:00;11.82;;;5.43;;
54795;SDS011;40693;43.884;20.340;2023-11-19T01:16:26;6.97;;;4.43;;
54795;SDS011;40693;43.884;20.340;2023-11-19T01:18:52;8.32;;;4.65;;
54795;SDS011;40693;43.884;20.340;2023-11-19T01:21:18;24.25;;;10.98;;
54795;SDS011;40693;43.884;20.340;2023-11-19T01:23:43;15.95;;;7.45;;
54795;SDS011;40693;43.884;20.340;2023-11-19T01:26:10;14.18;;;7.78;;
54795;SDS011;40693;43.884;20.340;2023-11-19T01:28:37;34.40;;;14.60;;
54795;SDS011;40693;43.884;20.340;2023-11-19T01:31:10;25.52;;;12.57;;
54795;SDS011;40693;43.884;20.340;2023-11-19T01:33:36;13.07;;;7.13;;
54795;SDS011;40693;43.884;20.340;2023-11-19T01:36:02;29.00;;;13.90;;
54795;SDS011;40693;43.884;20.340;2023-11-19T01:38:29;11.85;;;7.47;;
54795;SDS011;40693;43.884;20.340;2023-11-19T01:40:56;17.30;;;8.73;;
54795;SDS011;40693;43.884;20.340;2023-11-19T01:43:35;15.10;;;9.10;;
54795;SDS011;40693;43.884;20.340;2023-11-19T01:46:03;17.15;;;8.70;;
54795;SDS011;40693;43.884;20.340;2023-11-19T01:48:31;9.63;;;5.55;;
54795;SDS011;40693;43.884;20.340;2023-11-19T01:50:58;10.13;;;6.00;;
54795;SDS011;40693;43.884;20.340;2023-11-19T01:53:25;6.27;;;5.20;;
54795;SDS011;40693;43.884;20.340;2023-11-19T01:55:51;8.02;;;4.00;;
54795;SDS011;40693;43.884;20.340;2023-11-19T01:58:17;7.37;;;5.10;;
54795;SDS011;40693;43.884;20.340;2023-11-19T02:00:44;6.97;;;4.43;;
54795;SDS011;40693;43.884;20.340;2023-11-19T02:10:19;7.37;;;4.33;;
54795;SDS011;40693;43.884;20.340;2023-11-19T02:12:45;8.20;;;5.00;;
54795;SDS011;40693;43.884;20.340;2023-11-19T02:15:11;9.97;;;4.97;;
54795;SDS011;40693;43.884;20.340;2023-11-19T02:17:37;10.40;;;5.53;;
54795;SDS011;40693;43.884;20.340;2023-11-19T02:20:03;8.07;;;4.93;;
54795;SDS011;40693;43.884;20.340;2023-11-19T02:22:34;8.33;;;4.27;;
54795;SDS011;40693;43.884;20.340;2023-11-19T02:25:00;6.87;;;4.17;;
54795;SDS011;40693;43.884;20.340;2023-11-19T02:30:14;12.73;;;7.27;;
54795;SDS011;40693;43.884;20.340;2023-11-19T02:32:43;12.73;;;6.37;;
54795;SDS011;40693;43.884;20.340;2023-11-19T02:35:08;10.70;;;4.90;;
54795;SDS011;40693;43.884;20.340;2023-11-19T02:37:34;9.30;;;5.83;;
54795;SDS011;40693;43.884;20.340;2023-11-19T02:40:00;7.00;;;4.28;;
54795;SDS011;40693;43.884;20.340;2023-11-19T02:42:28;7.97;;;4.83;;
54795;SDS011;40693;43.884;20.340;2023-11-19T02:44:54;5.40;;;3.70;;
54795;SDS011;40693;43.884;20.340;2023-11-19T02:47:19;7.90;;;4.63;;
54795;SDS011;40693;43.884;20.340;2023-11-19T02:49:46;7.30;;;4.83;;
54795;SDS011;40693;43.884;20.340;2023-11-19T02:52:13;10.50;;;5.03;;
54795;SDS011;40693;43.884;20.340;2023-11-19T02:54:39;5.88;;;3.50;;
54795;SDS011;40693;43.884;20.340;2023-11-19T02:57:06;4.95;;;3.55;;
54795;SDS011;40693;43.884;20.340;2023-11-19T02:59:35;6.97;;;4.17;;
54795;SDS011;40693;43.884;20.340;2023-11-19T03:02:06;6.60;;;3.53;;
54795;SDS011;40693;43.884;20.340;2023-11-19T03:04:41;5.70;;;3.87;;
54795;SDS011;40693;43.884;20.340;2023-11-19T03:07:08;8.10;;;3.87;;
54795;SDS011;40693;43.884;20.340;2023-11-19T03:09:34;6.00;;;3.27;;
54795;SDS011;40693;43.884;20.340;2023-11-19T03:12:00;5.67;;;3.77;;
54795;SDS011;40693;43.884;20.340;2023-11-19T03:14:27;6.73;;;4.37;;
54795;SDS011;40693;43.884;20.340;2023-11-19T03:16:53;5.70;;;3.80;;
54795;SDS011;40693;43.884;20.340;2023-11-19T03:19:18;4.33;;;3.10;;
54795;SDS011;40693;43.884;20.340;2023-11-19T03:21:44;6.73;;;4.63;;
54795;SDS011;40693;43.884;20.340;2023-11-19T03:24:12;5.72;;;4.03;;
54795;SDS011;40693;43.884;20.340;2023-11-19T03:26:38;6.77;;;3.80;;
54795;SDS011;40693;43.884;20.340;2023-11-19T03:29:04;6.27;;;3.60;;
54795;SDS011;40693;43.884;20.340;2023-11-19T03:31:30;6.47;;;3.67;;
54795;SDS011;40693;43.884;20.340;2023-11-19T03:33:56;5.78;;;3.50;;
54795;SDS011;40693;43.884;20.340;2023-11-19T03:36:21;7.00;;;4.17;;
54795;SDS011;40693;43.884;20.340;2023-11-19T03:38:47;7.23;;;3.80;;
54795;SDS011;40693;43.884;20.340;2023-11-19T03:41:13;6.90;;;4.20;;
54795;SDS011;40693;43.884;20.340;2023-11-19T03:43:40;5.00;;;3.43;;
54795;SDS011;40693;43.884;20.340;2023-11-19T03:46:16;5.35;;;3.30;;
54795;SDS011;40693;43.884;20.340;2023-11-19T03:48:46;4.53;;;3.10;;
54795;SDS011;40693;43.884;20.340;2023-11-19T03:51:13;6.40;;;3.33;;
54795;SDS011;40693;43.884;20.340;2023-11-19T03:53:42;6.90;;;3.07;;
54795;SDS011;40693;43.884;20.340;2023-11-19T03:56:08;5.63;;;3.72;;
54795;SDS011;40693;43.884;20.340;2023-11-19T03:58:35;6.77;;;4.10;;
54795;SDS011;40693;43.884;20.340;2023-11-19T04:01:01;7.27;;;4.00;;
54795;SDS011;40693;43.884;20.340;2023-11-19T04:03:27;4.40;;;3.23;;
54795;SDS011;40693;43.884;20.340;2023-11-19T04:05:53;5.00;;;3.90;;
54795;SDS011;40693;43.884;20.340;2023-11-19T04:08:19;6.37;;;3.13;;
54795;SDS011;40693;43.884;20.340;2023-11-19T04:10:44;6.10;;;3.73;;
54795;SDS011;40693;43.884;20.340;2023-11-19T04:13:10;7.53;;;3.63;;
54795;SDS011;40693;43.884;20.340;2023-11-19T04:15:36;8.83;;;3.53;;
54795;SDS011;40693;43.884;20.340;2023-11-19T04:18:01;6.20;;;3.43;;
54795;SDS011;40693;43.884;20.340;2023-11-19T04:20:27;5.82;;;4.07;;
54795;SDS011;40693;43.884;20.340;2023-11-19T04:22:53;9.47;;;4.43;;
54795;SDS011;40693;43.884;20.340;2023-11-19T04:25:19;7.60;;;4.07;;
54795;SDS011;40693;43.884;20.340;2023-11-19T04:27:44;6.87;;;3.97;;
54795;SDS011;40693;43.884;20.340;2023-11-19T04:30:12;5.20;;;3.47;;
54795;SDS011;40693;43.884;20.340;2023-11-19T04:32:38;6.68;;;3.70;;
54795;SDS011;40693;43.884;20.340;2023-11-19T04:35:04;4.93;;;3.97;;
54795;SDS011;40693;43.884;20.340;2023-11-19T04:37:32;7.30;;;3.03;;
54795;SDS011;40693;43.884;20.340;2023-11-19T04:39:57;5.03;;;3.27;;
54795;SDS011;40693;43.884;20.340;2023-11-19T04:42:24;6.93;;;4.17;;
54795;SDS011;40693;43.884;20.340;2023-11-19T04:44:50;6.63;;;4.78;;
54795;SDS011;40693;43.884;20.340;2023-11-19T04:47:16;5.67;;;4.40;;
54795;SDS011;40693;43.884;20.340;2023-11-19T04:49:42;5.27;;;3.63;;
54795;SDS011;40693;43.884;20.340;2023-11-19T04:52:10;8.00;;;3.90;;
54795;SDS011;40693;43.884;20.340;2023-11-19T04:54:46;6.87;;;4.17;;
54795;SDS011;40693;43.884;20.340;2023-11-19T04:57:13;7.93;;;3.95;;
54795;SDS011;40693;43.884;20.340;2023-11-19T04:59:38;7.07;;;4.03;;
54795;SDS011;40693;43.884;20.340;2023-11-19T05:02:05;5.83;;;3.80;;
54795;SDS011;40693;43.884;20.340;2023-11-19T05:04:31;8.90;;;4.97;;
54795;SDS011;40693;43.884;20.340;2023-11-19T05:06:57;8.53;;;4.70;;
54795;SDS011;40693;43.884;20.340;2023-11-19T05:09:22;6.88;;;4.03;;
54795;SDS011;40693;43.884;20.340;2023-11-19T05:11:48;6.07;;;3.60;;
54795;SDS011;40693;43.884;20.340;2023-11-19T05:14:14;8.53;;;4.47;;
54795;SDS011;40693;43.884;20.340;2023-11-19T05:16:40;8.67;;;3.67;;
54795;SDS011;40693;43.884;20.340;2023-11-19T05:19:06;8.23;;;4.27;;
54795;SDS011;40693;43.884;20.340;2023-11-19T05:21:32;7.10;;;3.53;;
54795;SDS011;40693;43.884;20.340;2023-11-19T05:23:58;6.37;;;3.60;;
54795;SDS011;40693;43.884;20.340;2023-11-19T05:26:24;7.83;;;4.13;;
54795;SDS011;40693;43.884;20.340;2023-11-19T05:28:50;6.13;;;3.70;;
54795;SDS011;40693;43.884;20.340;2023-11-19T05:31:16;7.60;;;4.67;;
54795;SDS011;40693;43.884;20.340;2023-11-19T05:33:43;8.57;;;5.23;;
54795;SDS011;40693;43.884;20.340;2023-11-19T05:36:10;7.83;;;4.77;;
54795;SDS011;40693;43.884;20.340;2023-11-19T05:38:37;7.33;;;3.80;;
54795;SDS011;40693;43.884;20.340;2023-11-19T05:41:03;12.00;;;8.50;;
54795;SDS011;40693;43.884;20.340;2023-11-19T05:43:32;21.33;;;12.73;;
54795;SDS011;40693;43.884;20.340;2023-11-19T05:45:58;30.80;;;17.10;;
54795;SDS011;40693;43.884;20.340;2023-11-19T05:48:25;12.30;;;8.03;;
54795;SDS011;40693;43.884;20.340;2023-11-19T05:50:51;24.60;;;15.67;;
54795;SDS011;40693;43.884;20.340;2023-11-19T05:53:17;23.50;;;12.53;;
54795;SDS011;40693;43.884;20.340;2023-11-19T05:55:43;13.83;;;8.37;;
54795;SDS011;40693;43.884;20.340;2023-11-19T05:58:19;18.60;;;10.67;;
54795;SDS011;40693;43.884;20.340;2023-11-19T06:00:47;19.00;;;9.23;;
54795;SDS011;40693;43.884;20.340;2023-11-19T06:03:13;12.93;;;8.60;;
54795;SDS011;40693;43.884;20.340;2023-11-19T06:05:39;7.43;;;5.47;;
54795;SDS011;40693;43.884;20.340;2023-11-19T06:08:04;8.47;;;4.93;;
54795;SDS011;40693;43.884;20.340;2023-11-19T06:10:32;9.47;;;5.80;;
54795;SDS011;40693;43.884;20.340;2023-11-19T06:13:00;85.00;;;54.63;;
54795;SDS011;40693;43.884;20.340;2023-11-19T06:15:30;51.78;;;31.98;;
54795;SDS011;40693;43.884;20.340;2023-11-19T06:17:56;35.23;;;25.07;;
54795;SDS011;40693;43.884;20.340;2023-11-19T06:20:24;20.17;;;11.97;;
54795;SDS011;40693;43.884;20.340;2023-11-19T06:22:50;20.93;;;13.60;;
54795;SDS011;40693;43.884;20.340;2023-11-19T06:25:16;19.63;;;13.00;;
54795;SDS011;40693;43.884;20.340;2023-11-19T06:27:42;12.90;;;8.13;;
54795;SDS011;40693;43.884;20.340;2023-11-19T06:30:08;11.03;;;7.03;;
54795;SDS011;40693;43.884;20.340;2023-11-19T06:32:34;17.33;;;9.43;;
54795;SDS011;40693;43.884;20.340;2023-11-19T06:35:00;21.57;;;12.90;;
54795;SDS011;40693;43.884;20.340;2023-11-19T06:37:26;19.57;;;10.30;;
54795;SDS011;40693;43.884;20.340;2023-11-19T06:39:52;17.60;;;9.67;;
54795;SDS011;40693;43.884;20.340;2023-11-19T06:42:18;14.20;;;8.33;;
54795;SDS011;40693;43.884;20.340;2023-11-19T06:44:43;15.77;;;8.57;;
54795;SDS011;40693;43.884;20.340;2023-11-19T06:47:09;13.17;;;7.43;;
54795;SDS011;40693;43.884;20.340;2023-11-19T06:49:35;10.63;;;7.07;;
54795;SDS011;40693;43.884;20.340;2023-11-19T06:52:01;16.30;;;9.70;;
54795;SDS011;40693;43.884;20.340;2023-11-19T06:54:26;21.80;;;13.43;;
54795;SDS011;40693;43.884;20.340;2023-11-19T06:56:52;14.03;;;8.97;;
54795;SDS011;40693;43.884;20.340;2023-11-19T06:59:18;12.67;;;7.57;;
54795;SDS011;40693;43.884;20.340;2023-11-19T07:01:44;28.67;;;14.80;;
54795;SDS011;40693;43.884;20.340;2023-11-19T07:04:12;21.83;;;12.23;;
54795;SDS011;40693;43.884;20.340;2023-11-19T07:06:38;18.17;;;12.40;;
54795;SDS011;40693;43.884;20.340;2023-11-19T07:09:06;14.07;;;9.13;;
54795;SDS011;40693;43.884;20.340;2023-11-19T07:11:36;15.40;;;10.10;;
54795;SDS011;40693;43.884;20.340;2023-11-19T07:14:03;9.30;;;5.70;;
54795;SDS011;40693;43.884;20.340;2023-11-19T07:16:29;8.83;;;5.43;;
54795;SDS011;40693;43.884;20.340;2023-11-19T07:18:55;10.10;;;6.17;;
54795;SDS011;40693;43.884;20.340;2023-11-19T07:21:21;12.10;;;4.95;;
54795;SDS011;40693;43.884;20.340;2023-11-19T07:23:47;6.25;;;4.78;;
54795;SDS011;40693;43.884;20.340;2023-11-19T07:26:12;6.25;;;4.25;;
54795;SDS011;40693;43.884;20.340;2023-11-19T07:28:38;6.75;;;3.42;;
54795;SDS011;40693;43.884;20.340;2023-11-19T07:31:07;5.75;;;3.90;;
54795;SDS011;40693;43.884;20.340;2023-11-19T07:33:33;10.32;;;6.22;;
54795;SDS011;40693;43.884;20.340;2023-11-19T07:35:59;9.60;;;5.97;;
54795;SDS011;40693;43.884;20.340;2023-11-19T07:38:24;13.27;;;8.10;;
54795;SDS011;40693;43.884;20.340;2023-11-19T07:40:50;11.02;;;6.43;;
54795;SDS011;40693;43.884;20.340;2023-11-19T07:43:16;12.20;;;7.70;;
54795;SDS011;40693;43.884;20.340;2023-11-19T07:45:41;6.10;;;3.70;;
54795;SDS011;40693;43.884;20.340;2023-11-19T07:48:08;11.18;;;6.32;;
54795;SDS011;40693;43.884;20.340;2023-11-19T07:50:35;8.05;;;5.03;;
54795;SDS011;40693;43.884;20.340;2023-11-19T07:53:01;11.52;;;6.25;;
54795;SDS011;40693;43.884;20.340;2023-11-19T07:55:29;8.18;;;5.22;;
54795;SDS011;40693;43.884;20.340;2023-11-19T07:57:55;8.13;;;4.90;;
54795;SDS011;40693;43.884;20.340;2023-11-19T08:00:21;7.88;;;5.38;;
54795;SDS011;40693;43.884;20.340;2023-11-19T08:02:47;8.02;;;5.50;;
54795;SDS011;40693;43.884;20.340;2023-11-19T08:05:13;9.23;;;4.97;;
54795;SDS011;40693;43.884;20.340;2023-11-19T08:07:38;6.90;;;4.75;;
54795;SDS011;40693;43.884;20.340;2023-11-19T08:10:04;6.88;;;4.50;;
54795;SDS011;40693;43.884;20.340;2023-11-19T08:12:30;6.65;;;4.00;;
54795;SDS011;40693;43.884;20.340;2023-11-19T08:14:56;8.05;;;5.03;;
54795;SDS011;40693;43.884;20.340;2023-11-19T08:17:23;9.00;;;5.47;;
54795;SDS011;40693;43.884;20.340;2023-11-19T08:19:49;8.48;;;5.18;;
54795;SDS011;40693;43.884;20.340;2023-11-19T08:22:15;6.90;;;4.00;;
54795;SDS011;40693;43.884;20.340;2023-11-19T08:24:42;7.88;;;3.85;;
54795;SDS011;40693;43.884;20.340;2023-11-19T08:27:08;9.75;;;6.32;;
54795;SDS011;40693;43.884;20.340;2023-11-19T08:29:34;7.00;;;3.58;;
54795;SDS011;40693;43.884;20.340;2023-11-19T08:32:00;8.85;;;4.38;;
54795;SDS011;40693;43.884;20.340;2023-11-19T08:34:28;6.43;;;4.22;;
54795;SDS011;40693;43.884;20.340;2023-11-19T08:36:54;6.57;;;4.28;;
54795;SDS011;40693;43.884;20.340;2023-11-19T08:39:20;7.90;;;4.65;;
54795;SDS011;40693;43.884;20.340;2023-11-19T08:41:49;7.60;;;4.78;;
54795;SDS011;40693;43.884;20.340;2023-11-19T08:44:15;7.43;;;4.40;;
54795;SDS011;40693;43.884;20.340;2023-11-19T08:46:50;10.88;;;6.97;;
54795;SDS011;40693;43.884;20.340;2023-11-19T08:49:16;8.45;;;5.60;;
54795;SDS011;40693;43.884;20.340;2023-11-19T08:51:42;5.20;;;2.83;;
54795;SDS011;40693;43.884;20.340;2023-11-19T08:54:08;5.95;;;4.63;;
54795;SDS011;40693;43.884;20.340;2023-11-19T08:56:34;7.20;;;4.97;;
54795;SDS011;40693;43.884;20.340;2023-11-19T08:59:00;8.57;;;5.97;;
54795;SDS011;40693;43.884;20.340;2023-11-19T09:01:26;7.93;;;5.20;;
54795;SDS011;40693;43.884;20.340;2023-11-19T09:03:52;7.78;;;4.95;;
54795;SDS011;40693;43.884;20.340;2023-11-19T09:06:17;8.52;;;4.43;;
54795;SDS011;40693;43.884;20.340;2023-11-19T09:08:43;16.35;;;10.35;;
54795;SDS011;40693;43.884;20.340;2023-11-19T09:11:09;8.88;;;6.43;;
54795;SDS011;40693;43.884;20.340;2023-11-19T09:13:35;7.40;;;5.07;;
54795;SDS011;40693;43.884;20.340;2023-11-19T09:16:01;7.32;;;5.20;;
54795;SDS011;40693;43.884;20.340;2023-11-19T09:18:30;6.97;;;5.70;;
54795;SDS011;40693;43.884;20.340;2023-11-19T09:20:56;11.23;;;7.97;;
54795;SDS011;40693;43.884;20.340;2023-11-19T09:23:22;11.32;;;8.27;;
54795;SDS011;40693;43.884;20.340;2023-11-19T09:25:50;7.63;;;6.85;;
54795;SDS011;40693;43.884;20.340;2023-11-19T09:28:16;10.35;;;7.13;;
54795;SDS011;40693;43.884;20.340;2023-11-19T09:30:42;6.90;;;4.93;;
54795;SDS011;40693;43.884;20.340;2023-11-19T09:33:08;6.53;;;4.85;;
54795;SDS011;40693;43.884;20.340;2023-11-19T09:35:34;6.18;;;3.78;;
54795;SDS011;40693;43.884;20.340;2023-11-19T09:38:00;4.18;;;3.53;;
54795;SDS011;40693;43.884;20.340;2023-11-19T09:40:26;6.93;;;4.47;;
54795;SDS011;40693;43.884;20.340;2023-11-19T09:42:53;6.00;;;4.63;;
54795;SDS011;40693;43.884;20.340;2023-11-19T09:45:20;8.18;;;5.55;;
54795;SDS011;40693;43.884;20.340;2023-11-19T09:47:46;6.13;;;3.67;;
54795;SDS011;40693;43.884;20.340;2023-11-19T09:50:16;8.30;;;5.70;;
54795;SDS011;40693;43.884;20.340;2023-11-19T09:52:46;7.75;;;4.55;;
54795;SDS011;40693;43.884;20.340;2023-11-19T09:55:12;6.97;;;4.70;;
54795;SDS011;40693;43.884;20.340;2023-11-19T09:57:39;5.78;;;4.05;;
54795;SDS011;40693;43.884;20.340;2023-11-19T10:00:07;4.80;;;3.47;;
54795;SDS011;40693;43.884;20.340;2023-11-19T10:02:35;5.10;;;3.63;;
54795;SDS011;40693;43.884;20.340;2023-11-19T10:05:04;5.40;;;4.25;;
54795;SDS011;40693;43.884;20.340;2023-11-19T10:07:33;9.63;;;5.60;;
54795;SDS011;40693;43.884;20.340;2023-11-19T10:10:00;6.35;;;4.72;;
54795;SDS011;40693;43.884;20.340;2023-11-19T10:12:29;8.00;;;6.07;;
54795;SDS011;40693;43.884;20.340;2023-11-19T10:14:56;13.45;;;5.45;;
54795;SDS011;40693;43.884;20.340;2023-11-19T10:17:32;6.55;;;4.50;;
54795;SDS011;40693;43.884;20.340;2023-11-19T10:19:59;9.05;;;5.38;;
54795;SDS011;40693;43.884;20.340;2023-11-19T10:22:25;9.30;;;5.53;;
54795;SDS011;40693;43.884;20.340;2023-11-19T10:24:52;15.43;;;9.52;;
54795;SDS011;40693;43.884;20.340;2023-11-19T10:27:18;11.57;;;7.70;;
54795;SDS011;40693;43.884;20.340;2023-11-19T10:29:44;8.20;;;4.57;;
54795;SDS011;40693;43.884;20.340;2023-11-19T10:32:14;8.18;;;5.65;;
54795;SDS011;40693;43.884;20.340;2023-11-19T10:34:42;8.55;;;5.07;;
54795;SDS011;40693;43.884;20.340;2023-11-19T10:37:08;10.40;;;7.35;;
54795;SDS011;40693;43.884;20.340;2023-11-19T10:39:53;10.20;;;6.03;;
54795;SDS011;40693;43.884;20.340;2023-11-19T10:42:19;6.25;;;4.47;;
54795;SDS011;40693;43.884;20.340;2023-11-19T10:44:45;5.55;;;3.25;;
54795;SDS011;40693;43.884;20.340;2023-11-19T10:47:11;6.35;;;3.40;;
54795;SDS011;40693;43.884;20.340;2023-11-19T10:49:39;7.53;;;5.35;;
54795;SDS011;40693;43.884;20.340;2023-11-19T10:52:05;13.45;;;8.95;;
54795;SDS011;40693;43.884;20.340;2023-11-19T10:54:34;8.80;;;5.45;;
54795;SDS011;40693;43.884;20.340;2023-11-19T10:57:00;5.93;;;4.03;;
54795;SDS011;40693;43.884;20.340;2023-11-19T10:59:31;7.88;;;4.80;;
54795;SDS011;40693;43.884;20.340;2023-11-19T11:01:57;10.18;;;7.35;;
54795;SDS011;40693;43.884;20.340;2023-11-19T11:04:25;10.77;;;6.47;;
54795;SDS011;40693;43.884;20.340;2023-11-19T11:06:56;10.13;;;6.05;;
54795;SDS011;40693;43.884;20.340;2023-11-19T11:09:28;5.60;;;3.55;;
54795;SDS011;40693;43.884;20.340;2023-11-19T11:11:55;4.53;;;2.88;;
54795;SDS011;40693;43.884;20.340;2023-11-19T11:14:22;8.50;;;4.60;;
54795;SDS011;40693;43.884;20.340;2023-11-19T11:16:50;8.63;;;4.55;;
54795;SDS011;40693;43.884;20.340;2023-11-19T11:19:17;8.13;;;3.65;;
54795;SDS011;40693;43.884;20.340;2023-11-19T11:21:44;8.20;;;4.85;;
54795;SDS011;40693;43.884;20.340;2023-11-19T11:32:36;8.60;;;6.05;;
54795;SDS011;40693;43.884;20.340;2023-11-19T11:38:03;4.45;;;3.28;;
54795;SDS011;40693;43.884;20.340;2023-11-19T11:40:32;9.05;;;6.88;;
54795;SDS011;40693;43.884;20.340;2023-11-19T11:42:57;4.20;;;2.50;;
54795;SDS011;40693;43.884;20.340;2023-11-19T11:45:37;5.97;;;3.88;;
54795;SDS011;40693;43.884;20.340;2023-11-19T11:48:11;8.07;;;4.82;;
54795;SDS011;40693;43.884;20.340;2023-11-19T11:50:50;9.65;;;5.97;;
54795;SDS011;40693;43.884;20.340;2023-11-19T11:53:18;7.00;;;4.13;;
54795;SDS011;40693;43.884;20.340;2023-11-19T11:58:13;13.43;;;9.30;;
54795;SDS011;40693;43.884;20.340;2023-11-19T12:00:42;7.90;;;5.22;;
54795;SDS011;40693;43.884;20.340;2023-11-19T12:03:08;5.97;;;4.30;;
54795;SDS011;40693;43.884;20.340;2023-11-19T12:05:42;9.48;;;5.15;;
54795;SDS011;40693;43.884;20.340;2023-11-19T12:08:10;9.18;;;6.10;;
54795;SDS011;40693;43.884;20.340;2023-11-19T12:10:38;5.03;;;4.03;;
54795;SDS011;40693;43.884;20.340;2023-11-19T12:13:08;3.83;;;2.28;;
54795;SDS011;40693;43.884;20.340;2023-11-19T12:16:06;4.28;;;3.03;;
54795;SDS011;40693;43.884;20.340;2023-11-19T12:18:23;6.30;;;3.88;;
54795;SDS011;40693;43.884;20.340;2023-11-19T12:20:51;7.03;;;3.55;;
54795;SDS011;40693;43.884;20.340;2023-11-19T12:23:16;4.53;;;2.75;;
54795;SDS011;40693;43.884;20.340;2023-11-19T12:25:42;7.60;;;4.53;;
54795;SDS011;40693;43.884;20.340;2023-11-19T12:28:13;10.18;;;5.90;;
54795;SDS011;40693;43.884;20.340;2023-11-19T12:30:41;10.38;;;7.43;;
54795;SDS011;40693;43.884;20.340;2023-11-19T12:33:08;7.47;;;4.88;;
54795;SDS011;40693;43.884;20.340;2023-11-19T12:35:43;9.00;;;5.35;;
54795;SDS011;40693;43.884;20.340;2023-11-19T12:38:20;5.32;;;3.92;;
54795;SDS011;40693;43.884;20.340;2023-11-19T12:41:02;8.93;;;6.05;;
54795;SDS011;40693;43.884;20.340;2023-11-19T12:43:29;7.70;;;4.50;;
54795;SDS011;40693;43.884;20.340;2023-11-19T12:45:55;10.75;;;6.75;;
54795;SDS011;40693;43.884;20.340;2023-11-19T12:48:21;6.50;;;4.47;;
54795;SDS011;40693;43.884;20.340;2023-11-19T12:50:50;10.15;;;6.35;;
54795;SDS011;40693;43.884;20.340;2023-11-19T12:53:23;7.07;;;4.53;;
54795;SDS011;40693;43.884;20.340;2023-11-19T12:55:50;5.55;;;3.40;;
54795;SDS011;40693;43.884;20.340;2023-11-19T13:01:06;9.50;;;5.90;;
54795;SDS011;40693;43.884;20.340;2023-11-19T13:03:33;8.18;;;5.60;;
54795;SDS011;40693;43.884;20.340;2023-11-19T13:06:03;13.63;;;7.55;;
54795;SDS011;40693;43.884;20.340;2023-11-19T13:08:40;9.27;;;4.88;;
54795;SDS011;40693;43.884;20.340;2023-11-19T13:11:32;11.07;;;6.03;;
54795;SDS011;40693;43.884;20.340;2023-11-19T13:14:01;18.92;;;10.38;;
54795;SDS011;40693;43.884;20.340;2023-11-19T13:16:29;26.65;;;14.65;;
54795;SDS011;40693;43.884;20.340;2023-11-19T13:18:55;11.63;;;7.05;;
54795;SDS011;40693;43.884;20.340;2023-11-19T13:21:22;37.22;;;21.20;;
54795;SDS011;40693;43.884;20.340;2023-11-19T13:23:48;23.33;;;12.20;;
54795;SDS011;40693;43.884;20.340;2023-11-19T13:26:15;23.10;;;17.25;;
54795;SDS011;40693;43.884;20.340;2023-11-19T13:28:40;29.17;;;25.90;;
54795;SDS011;40693;43.884;20.340;2023-11-19T13:31:06;14.35;;;9.48;;
54795;SDS011;40693;43.884;20.340;2023-11-19T13:33:32;9.60;;;5.97;;
54795;SDS011;40693;43.884;20.340;2023-11-19T13:35:59;7.25;;;5.15;;
54795;SDS011;40693;43.884;20.340;2023-11-19T13:38:30;9.00;;;5.68;;
54795;SDS011;40693;43.884;20.340;2023-11-19T13:40:59;13.35;;;8.02;;
54795;SDS011;40693;43.884;20.340;2023-11-19T13:43:25;18.42;;;12.35;;
54795;SDS011;40693;43.884;20.340;2023-11-19T13:45:51;21.67;;;14.13;;
54795;SDS011;40693;43.884;20.340;2023-11-19T13:48:18;11.90;;;7.47;;
54795;SDS011;40693;43.884;20.340;2023-11-19T13:50:44;21.35;;;13.95;;
54795;SDS011;40693;43.884;20.340;2023-11-19T13:53:10;11.30;;;7.25;;
54795;SDS011;40693;43.884;20.340;2023-11-19T13:55:36;22.35;;;12.57;;
54795;SDS011;40693;43.884;20.340;2023-11-19T13:58:01;12.60;;;9.02;;
54795;SDS011;40693;43.884;20.340;2023-11-19T14:00:27;11.27;;;7.97;;
54795;SDS011;40693;43.884;20.340;2023-11-19T14:02:53;8.98;;;6.70;;
54795;SDS011;40693;43.884;20.340;2023-11-19T14:05:19;11.77;;;7.07;;
54795;SDS011;40693;43.884;20.340;2023-11-19T14:07:45;11.05;;;6.45;;
54795;SDS011;40693;43.884;20.340;2023-11-19T14:10:14;12.93;;;9.30;;
54795;SDS011;40693;43.884;20.340;2023-11-19T14:12:40;10.98;;;7.28;;
54795;SDS011;40693;43.884;20.340;2023-11-19T14:15:07;24.58;;;15.15;;
54795;SDS011;40693;43.884;20.340;2023-11-19T14:17:35;23.65;;;15.93;;
54795;SDS011;40693;43.884;20.340;2023-11-19T14:20:02;80.53;;;49.33;;
54795;SDS011;40693;43.884;20.340;2023-11-19T14:22:37;56.42;;;37.40;;
54795;SDS011;40693;43.884;20.340;2023-11-19T14:25:07;74.28;;;43.15;;
54795;SDS011;40693;43.884;20.340;2023-11-19T14:27:39;77.43;;;44.75;;
54795;SDS011;40693;43.884;20.340;2023-11-19T14:30:06;32.08;;;23.50;;
54795;SDS011;40693;43.884;20.340;2023-11-19T14:32:37;48.97;;;30.08;;
54795;SDS011;40693;43.884;20.340;2023-11-19T14:35:04;61.47;;;37.80;;
54795;SDS011;40693;43.884;20.340;2023-11-19T14:37:30;65.38;;;39.80;;
54795;SDS011;40693;43.884;20.340;2023-11-19T14:39:57;58.20;;;35.97;;
54795;SDS011;40693;43.884;20.340;2023-11-19T14:42:23;90.90;;;51.65;;
54795;SDS011;40693;43.884;20.340;2023-11-19T14:44:50;102.35;;;57.40;;
54795;SDS011;40693;43.884;20.340;2023-11-19T14:47:18;114.20;;;74.57;;
54795;SDS011;40693;43.884;20.340;2023-11-19T14:49:48;89.65;;;54.95;;
54795;SDS011;40693;43.884;20.340;2023-11-19T14:52:13;70.03;;;43.17;;
54795;SDS011;40693;43.884;20.340;2023-11-19T14:54:39;103.78;;;65.05;;